Time;durP1;ratioP1;P1;durP2;ratioP2;P2;SDS_P1;SDS_P2;PMS_P1;PMS_P2;Temp;Humidity;BMP_temperature;BMP_pressure;BME280_temperature;BME280_humidity;BME280_pressure;Samples;Min_cycle;Max_cycle;Signal;HPM_P1;HPM_P2
2022/11/19 00:01:12;;;;;;;26.92;17.85;;;;;;;;;;5116225;28;20197;-66
2022/11/19 00:03:41;;;;;;;26.85;18.45;;;;;;;;;;5116486;28;20204;-66
2022/11/19 00:06:09;;;;;;;24.85;17.38;;;;;;;;;;5116670;28;20191;-66
2022/11/19 00:08:36;;;;;;;23.02;16.40;;;;;;;;;;5116252;28;20223;-66
2022/11/19 00:11:05;;;;;;;32.38;18.83;;;;;;;;;;5116425;28;20200;-66
2022/11/19 00:13:31;;;;;;;28.05;17.52;;;;;;;;;;5116368;28;20270;-65
2022/11/19 00:16:03;;;;;;;27.23;19.42;;;;;;;;;;5116248;28;20593;-66
2022/11/19 00:18:31;;;;;;;26.05;18.73;;;;;;;;;;5116695;28;20191;-65
2022/11/19 00:21:02;;;;;;;27.63;19.13;;;;;;;;;;5115113;28;20198;-66
2022/11/19 00:23:29;;;;;;;26.00;17.52;;;;;;;;;;5116288;28;20198;-66
2022/11/19 00:25:56;;;;;;;28.95;19.73;;;;;;;;;;5115650;28;20195;-66
2022/11/19 00:28:24;;;;;;;28.60;19.45;;;;;;;;;;5115852;28;20223;-66
2022/11/19 00:30:51;;;;;;;29.23;19.15;;;;;;;;;;5115506;28;20191;-66
2022/11/19 00:33:19;;;;;;;29.02;17.70;;;;;;;;;;5116080;28;20190;-65
2022/11/19 00:35:47;;;;;;;31.85;20.25;;;;;;;;;;5116940;28;20320;-66
2022/11/19 00:38:14;;;;;;;29.70;19.35;;;;;;;;;;5115787;28;20201;-66
2022/11/19 00:40:42;;;;;;;30.70;20.40;;;;;;;;;;5115227;28;20199;-66
2022/11/19 00:45:54;;;;;;;34.60;19.17;;;;;;;;;;5115405;28;20179;-66
2022/11/19 00:48:23;;;;;;;31.52;20.88;;;;;;;;;;5115586;28;20677;-65
2022/11/19 00:50:50;;;;;;;29.17;20.27;;;;;;;;;;5115749;28;20209;-66
2022/11/19 00:53:17;;;;;;;27.77;19.80;;;;;;;;;;5115492;28;20271;-66
2022/11/19 00:55:44;;;;;;;28.70;19.10;;;;;;;;;;5115356;28;20195;-66
2022/11/19 00:58:11;;;;;;;29.90;20.80;;;;;;;;;;5115384;28;20197;-66
2022/11/19 01:00:38;;;;;;;29.60;19.30;;;;;;;;;;5115010;28;20192;-65
2022/11/19 01:03:06;;;;;;;31.50;20.10;;;;;;;;;;5115452;28;20252;-65
2022/11/19 01:05:34;;;;;;;27.98;18.35;;;;;;;;;;5115207;28;20202;-65
2022/11/19 01:08:01;;;;;;;31.92;20.45;;;;;;;;;;5115031;28;20215;-66
2022/11/19 01:10:29;;;;;;;28.17;20.13;;;;;;;;;;5114870;28;20194;-65
2022/11/19 01:15:40;;;;;;;38.72;24.60;;;;;;;;;;5101068;28;20239;-65
2022/11/19 01:18:07;;;;;;;35.38;22.52;;;;;;;;;;5114942;28;20206;-66
2022/11/19 01:20:36;;;;;;;31.50;21.33;;;;;;;;;;5114613;28;20196;-65
2022/11/19 01:23:03;;;;;;;31.45;20.05;;;;;;;;;;5114747;28;20197;-66
2022/11/19 01:25:30;;;;;;;40.30;22.20;;;;;;;;;;5114889;28;20202;-66
2022/11/19 01:27:57;;;;;;;38.90;22.42;;;;;;;;;;5114594;28;20221;-66
2022/11/19 01:30:24;;;;;;;32.22;22.10;;;;;;;;;;5114395;28;20196;-66
2022/11/19 01:32:52;;;;;;;36.58;24.13;;;;;;;;;;5114284;28;20219;-67
2022/11/19 01:35:19;;;;;;;30.52;20.77;;;;;;;;;;5114653;28;20289;-66
2022/11/19 01:37:47;;;;;;;39.85;22.60;;;;;;;;;;5114550;28;20209;-66
2022/11/19 01:40:15;;;;;;;29.88;21.70;;;;;;;;;;5115131;28;20676;-66
2022/11/19 01:42:52;;;;;;;35.28;23.17;;;;;;;;;;5114809;28;20227;-66
2022/11/19 01:45:25;;;;;;;35.97;23.00;;;;;;;;;;5114783;28;20195;-66
2022/11/19 01:47:53;;;;;;;30.35;18.95;;;;;;;;;;5114353;28;20207;-66
2022/11/19 01:50:20;;;;;;;35.88;23.20;;;;;;;;;;5114048;28;20204;-66
2022/11/19 01:52:49;;;;;;;41.65;23.17;;;;;;;;;;5113992;28;20201;-66
2022/11/19 01:55:17;;;;;;;37.60;24.45;;;;;;;;;;5114036;28;20200;-66
2022/11/19 01:57:44;;;;;;;36.88;22.80;;;;;;;;;;5113922;28;20603;-66
2022/11/19 02:00:12;;;;;;;37.65;23.65;;;;;;;;;;5114018;28;20205;-66
2022/11/19 02:02:39;;;;;;;37.20;23.65;;;;;;;;;;5114180;28;20246;-66
2022/11/19 02:05:07;;;;;;;37.45;23.02;;;;;;;;;;5115024;28;20199;-66
2022/11/19 02:07:35;;;;;;;35.88;20.92;;;;;;;;;;5113672;28;20221;-66
2022/11/19 02:10:06;;;;;;;39.05;21.83;;;;;;;;;;5114098;28;20197;-66
2022/11/19 02:12:40;;;;;;;31.83;22.23;;;;;;;;;;5113559;28;20194;-66
2022/11/19 02:15:14;;;;;;;36.28;23.05;;;;;;;;;;5114380;28;20192;-65
2022/11/19 02:17:52;;;;;;;34.20;22.25;;;;;;;;;;5114301;28;20187;-67
2022/11/19 02:20:38;;;;;;;39.13;25.83;;;;;;;;;;5113799;28;20193;-65
2022/11/19 02:23:16;;;;;;;37.65;24.40;;;;;;;;;;5113870;28;20194;-66
2022/11/19 02:25:53;;;;;;;38.58;24.90;;;;;;;;;;5113696;28;20662;-66
2022/11/19 02:28:38;;;;;;;43.20;27.13;;;;;;;;;;5113834;28;20574;-66
2022/11/19 02:31:09;;;;;;;36.75;24.65;;;;;;;;;;5113942;28;20189;-65
2022/11/19 02:33:41;;;;;;;39.45;24.30;;;;;;;;;;5113950;28;20542;-66
2022/11/19 02:36:10;;;;;;;35.30;23.25;;;;;;;;;;5114102;28;20190;-66
2022/11/19 02:38:40;;;;;;;38.28;24.83;;;;;;;;;;5113343;28;20203;-66
2022/11/19 02:44:57;;;;;;;35.08;22.48;;;;;;;;;;5113900;28;20263;-66
2022/11/19 02:46:47;;;;;;;32.25;20.90;;;;;;;;;;5117641;28;20193;-66
2022/11/19 02:49:16;;;;;;;38.90;23.92;;;;;;;;;;5117507;28;20209;-66
2022/11/19 02:51:43;;;;;;;35.53;22.95;;;;;;;;;;5117589;28;20657;-66
2022/11/19 02:54:10;;;;;;;42.00;25.33;;;;;;;;;;5117762;28;20298;-66
2022/11/19 02:56:48;;;;;;;31.95;21.52;;;;;;;;;;5118150;28;20285;-65
2022/11/19 03:04:48;;;;;;;40.42;24.52;;;;;;;;;;5117742;28;20681;-66
2022/11/19 03:07:17;;;;;;;33.97;20.63;;;;;;;;;;5117431;28;20280;-65
2022/11/19 03:09:46;;;;;;;34.60;22.30;;;;;;;;;;5117471;28;20590;-65
2022/11/19 03:12:18;;;;;;;37.42;23.15;;;;;;;;;;5117853;28;20197;-65
2022/11/19 03:17:41;;;;;;;37.65;23.92;;;;;;;;;;5117226;28;20183;-65
2022/11/19 03:20:11;;;;;;;37.85;23.92;;;;;;;;;;5117254;28;20179;-66
2022/11/19 03:22:40;;;;;;;34.97;22.83;;;;;;;;;;5117158;28;20202;-66
2022/11/19 03:25:09;;;;;;;37.10;23.15;;;;;;;;;;5117197;28;20244;-65
2022/11/19 03:27:39;;;;;;;38.15;24.67;;;;;;;;;;5116987;28;20218;-66
2022/11/19 03:30:06;;;;;;;41.08;26.38;;;;;;;;;;5116793;28;20189;-67
2022/11/19 03:32:36;;;;;;;38.63;24.40;;;;;;;;;;5116746;28;20201;-66
2022/11/19 03:35:06;;;;;;;35.40;23.65;;;;;;;;;;5116931;28;20194;-66
2022/11/19 03:37:36;;;;;;;40.55;25.75;;;;;;;;;;5116950;28;20201;-66
2022/11/19 03:40:03;;;;;;;36.35;23.88;;;;;;;;;;5117131;27;20252;-66
2022/11/19 03:42:31;;;;;;;36.40;23.58;;;;;;;;;;5116796;28;20228;-65
2022/11/19 03:45:00;;;;;;;38.53;23.90;;;;;;;;;;5116505;28;20209;-65
2022/11/19 03:47:31;;;;;;;39.83;25.40;;;;;;;;;;5116724;28;20197;-65
2022/11/19 03:50:00;;;;;;;38.22;24.42;;;;;;;;;;5116856;28;20183;-66
2022/11/19 03:52:28;;;;;;;36.72;24.65;;;;;;;;;;5116750;28;20200;-66
2022/11/19 03:54:56;;;;;;;39.40;23.73;;;;;;;;;;5116388;28;20195;-66
2022/11/19 03:57:24;;;;;;;38.53;23.65;;;;;;;;;;5116624;28;20551;-65
2022/11/19 03:59:51;;;;;;;40.50;24.33;;;;;;;;;;5116429;28;20195;-66
2022/11/19 04:02:19;;;;;;;42.15;26.20;;;;;;;;;;5116819;28;20201;-66
2022/11/19 04:04:46;;;;;;;33.13;21.58;;;;;;;;;;5116425;28;20560;-66
2022/11/19 04:07:14;;;;;;;34.72;22.92;;;;;;;;;;5116690;28;20199;-65
2022/11/19 04:09:43;;;;;;;35.72;22.08;;;;;;;;;;5116157;28;20707;-66
2022/11/19 04:12:16;;;;;;;38.00;21.73;;;;;;;;;;5116573;28;20192;-65
2022/11/19 04:14:43;;;;;;;35.70;22.20;;;;;;;;;;5115857;28;20184;-66
2022/11/19 04:17:10;;;;;;;31.98;20.48;;;;;;;;;;5116115;28;20753;-65
2022/11/19 04:19:37;;;;;;;32.95;22.48;;;;;;;;;;5116263;28;20200;-66
2022/11/19 04:22:04;;;;;;;39.88;24.40;;;;;;;;;;5115749;28;20199;-65
2022/11/19 04:24:32;;;;;;;35.03;21.70;;;;;;;;;;5115546;28;20669;-65
2022/11/19 04:27:00;;;;;;;34.53;22.90;;;;;;;;;;5116346;28;20217;-66
2022/11/19 04:29:28;;;;;;;38.85;23.13;;;;;;;;;;5115887;28;20221;-66
2022/11/19 04:31:55;;;;;;;34.42;22.20;;;;;;;;;;5116643;28;20190;-65
2022/11/19 04:34:22;;;;;;;34.20;22.85;;;;;;;;;;5115510;28;20195;-66
2022/11/19 04:36:49;;;;;;;33.20;21.55;;;;;;;;;;5115511;28;20212;-66
2022/11/19 04:39:16;;;;;;;36.20;21.88;;;;;;;;;;5115342;28;20208;-65
2022/11/19 04:41:43;;;;;;;39.70;24.20;;;;;;;;;;5115339;28;20690;-65
2022/11/19 04:44:12;;;;;;;34.38;22.95;;;;;;;;;;5115737;28;20189;-65
2022/11/19 04:46:39;;;;;;;31.60;21.20;;;;;;;;;;5115234;28;20208;-65
2022/11/19 04:49:06;;;;;;;32.38;21.05;;;;;;;;;;5115119;28;20705;-66
2022/11/19 04:51:33;;;;;;;31.25;20.35;;;;;;;;;;5115883;28;20593;-65
2022/11/19 04:54:01;;;;;;;32.05;20.80;;;;;;;;;;5113804;28;20220;-66
2022/11/19 04:56:28;;;;;;;29.60;20.80;;;;;;;;;;5114953;28;20285;-65
2022/11/19 04:58:55;;;;;;;35.65;23.83;;;;;;;;;;5114790;28;20220;-66
2022/11/19 05:01:23;;;;;;;31.95;20.63;;;;;;;;;;5114807;28;20300;-65
2022/11/19 05:03:51;;;;;;;32.10;19.67;;;;;;;;;;5114725;28;20199;-66
2022/11/19 05:06:18;;;;;;;33.90;20.35;;;;;;;;;;5114156;28;20559;-66
2022/11/19 05:08:45;;;;;;;34.97;21.15;;;;;;;;;;5114434;28;20219;-65
2022/11/19 05:11:12;;;;;;;33.75;23.55;;;;;;;;;;5114775;28;20200;-66
2022/11/19 05:13:40;;;;;;;36.38;23.65;;;;;;;;;;5114678;28;20199;-65
2022/11/19 05:16:07;;;;;;;37.22;19.58;;;;;;;;;;5114745;28;20192;-65
2022/11/19 05:18:35;;;;;;;35.13;20.55;;;;;;;;;;5114822;28;20198;-65
2022/11/19 05:21:03;;;;;;;29.55;19.30;;;;;;;;;;5114435;28;20194;-65
2022/11/19 05:23:30;;;;;;;30.17;21.23;;;;;;;;;;5114923;28;20555;-66
2022/11/19 05:25:57;;;;;;;29.45;20.35;;;;;;;;;;5114854;28;20578;-64
2022/11/19 05:28:24;;;;;;;33.78;18.48;;;;;;;;;;5114627;28;20578;-65
2022/11/19 05:30:54;;;;;;;32.50;21.10;;;;;;;;;;5114508;28;20194;-65
2022/11/19 05:33:21;;;;;;;35.28;20.08;;;;;;;;;;5114352;28;20205;-66
2022/11/19 05:35:49;;;;;;;32.15;19.10;;;;;;;;;;5114535;28;20217;-66
2022/11/19 05:38:17;;;;;;;32.13;19.25;;;;;;;;;;5114532;28;20230;-66
2022/11/19 05:40:45;;;;;;;32.75;19.70;;;;;;;;;;5114252;28;20284;-65
2022/11/19 05:43:12;;;;;;;36.97;20.05;;;;;;;;;;5115123;28;20231;-65
2022/11/19 05:45:39;;;;;;;31.17;19.10;;;;;;;;;;5114404;28;20193;-66
2022/11/19 05:48:07;;;;;;;28.83;17.48;;;;;;;;;;5114368;28;20191;-66
2022/11/19 05:50:34;;;;;;;28.90;17.60;;;;;;;;;;5114271;28;20189;-65
2022/11/19 05:53:04;;;;;;;29.92;18.35;;;;;;;;;;5113645;28;20650;-66
2022/11/19 05:55:31;;;;;;;31.67;19.58;;;;;;;;;;5114143;28;20205;-65
2022/11/19 05:57:58;;;;;;;30.77;18.35;;;;;;;;;;5114285;28;20198;-65
2022/11/19 06:00:25;;;;;;;29.05;17.95;;;;;;;;;;5114159;28;20556;-66
2022/11/19 06:02:52;;;;;;;28.83;18.80;;;;;;;;;;5113712;28;20193;-65
2022/11/19 06:05:20;;;;;;;29.48;16.65;;;;;;;;;;5114096;28;20284;-66
2022/11/19 06:07:47;;;;;;;24.98;15.80;;;;;;;;;;5114335;28;20189;-65
2022/11/19 06:10:15;;;;;;;25.75;15.93;;;;;;;;;;5113571;28;20681;-65
2022/11/19 06:12:43;;;;;;;28.05;15.95;;;;;;;;;;5114126;28;20193;-65
2022/11/19 06:15:11;;;;;;;23.77;15.35;;;;;;;;;;5114300;28;20196;-66
2022/11/19 06:17:38;;;;;;;25.30;15.73;;;;;;;;;;5113929;28;20194;-65
2022/11/19 06:20:07;;;;;;;22.70;14.00;;;;;;;;;;5113941;28;20565;-66
2022/11/19 06:22:35;;;;;;;26.52;14.10;;;;;;;;;;5113402;28;20682;-66
2022/11/19 06:25:02;;;;;;;28.55;15.82;;;;;;;;;;5113843;28;20193;-66
2022/11/19 06:27:30;;;;;;;24.73;15.02;;;;;;;;;;5113886;28;20624;-66
2022/11/19 06:29:59;;;;;;;24.77;15.90;;;;;;;;;;5113703;28;20227;-65
2022/11/19 06:32:26;;;;;;;23.20;15.68;;;;;;;;;;5113732;28;20288;-66
2022/11/19 06:34:53;;;;;;;22.85;15.00;;;;;;;;;;5113792;28;20190;-65
2022/11/19 06:37:20;;;;;;;21.30;14.45;;;;;;;;;;5113825;28;20189;-66
2022/11/19 06:39:48;;;;;;;22.55;12.77;;;;;;;;;;5113813;28;20197;-66
2022/11/19 06:45:01;;;;;;;21.63;13.02;;;;;;;;;;5113653;28;20359;-66
2022/11/19 06:47:30;;;;;;;18.15;12.65;;;;;;;;;;5113696;28;20193;-66
2022/11/19 06:49:57;;;;;;;21.67;14.20;;;;;;;;;;5113719;28;20223;-65
2022/11/19 06:52:24;;;;;;;20.67;14.13;;;;;;;;;;5113506;28;20188;-65
2022/11/19 06:54:51;;;;;;;21.67;13.32;;;;;;;;;;5114197;28;20287;-65
2022/11/19 06:57:18;;;;;;;22.42;14.95;;;;;;;;;;5113785;28;20193;-65
2022/11/19 06:59:46;;;;;;;18.40;13.73;;;;;;;;;;5113698;28;20230;-65
2022/11/19 07:02:14;;;;;;;19.60;13.07;;;;;;;;;;5113588;28;20211;-66
2022/11/19 07:04:42;;;;;;;20.23;14.05;;;;;;;;;;5113817;28;20200;-65
2022/11/19 07:07:09;;;;;;;19.20;12.90;;;;;;;;;;5113725;28;20189;-66
2022/11/19 07:09:36;;;;;;;16.70;11.45;;;;;;;;;;5113134;28;20216;-65
2022/11/19 07:12:04;;;;;;;19.60;11.75;;;;;;;;;;5112984;28;20193;-66
2022/11/19 07:14:31;;;;;;;17.30;11.68;;;;;;;;;;5113233;28;20204;-65
2022/11/19 07:16:58;;;;;;;17.75;11.60;;;;;;;;;;5113397;28;20283;-65
2022/11/19 07:19:27;;;;;;;15.10;12.00;;;;;;;;;;5113498;28;20200;-65
2022/11/19 07:21:54;;;;;;;13.15;11.15;;;;;;;;;;5113352;28;20706;-65
2022/11/19 07:24:21;;;;;;;17.88;12.07;;;;;;;;;;5113562;28;20196;-65
2022/11/19 07:26:48;;;;;;;14.90;11.57;;;;;;;;;;5113645;28;20289;-65
2022/11/19 07:29:15;;;;;;;15.18;11.10;;;;;;;;;;5113280;28;20216;-65
2022/11/19 07:31:45;;;;;;;14.68;10.80;;;;;;;;;;5116396;28;20620;-65
2022/11/19 07:34:13;;;;;;;17.67;10.27;;;;;;;;;;5117346;28;20192;-65
2022/11/19 07:36:41;;;;;;;15.57;10.93;;;;;;;;;;5116922;28;20189;-65
2022/11/19 07:39:09;;;;;;;18.13;11.25;;;;;;;;;;5116986;28;20202;-65
2022/11/19 07:44:21;;;;;;;15.68;9.85;;;;;;;;;;5117055;28;20261;-65
2022/11/19 07:46:48;;;;;;;15.00;10.93;;;;;;;;;;5116808;28;20203;-65
2022/11/19 07:49:16;;;;;;;14.63;9.43;;;;;;;;;;5116930;27;20232;-65
2022/11/19 07:51:45;;;;;;;12.40;10.30;;;;;;;;;;5116315;28;20188;-65
2022/11/19 07:54:13;;;;;;;18.13;11.02;;;;;;;;;;5116681;28;20216;-65
2022/11/19 07:56:40;;;;;;;14.18;10.80;;;;;;;;;;5116573;28;20195;-65
2022/11/19 07:59:07;;;;;;;14.48;10.75;;;;;;;;;;5116532;28;20193;-65
2022/11/19 08:01:34;;;;;;;14.60;11.00;;;;;;;;;;5114827;28;20280;-65
2022/11/19 08:04:04;;;;;;;13.43;9.38;;;;;;;;;;5116246;28;20590;-65
2022/11/19 08:06:33;;;;;;;12.70;9.38;;;;;;;;;;5116204;28;20224;-66
2022/11/19 08:09:02;;;;;;;17.08;11.82;;;;;;;;;;5116451;28;20254;-65
2022/11/19 08:11:29;;;;;;;13.45;10.48;;;;;;;;;;5116409;28;20231;-66
2022/11/19 08:13:56;;;;;;;14.05;10.48;;;;;;;;;;5116123;28;20284;-65
2022/11/19 08:19:09;;;;;;;14.60;11.48;;;;;;;;;;5115966;28;20226;-65
2022/11/19 08:21:36;;;;;;;13.32;11.10;;;;;;;;;;5115949;28;20194;-65
2022/11/19 08:24:05;;;;;;;15.07;10.00;;;;;;;;;;5115915;28;20629;-65
2022/11/19 08:26:32;;;;;;;11.48;8.65;;;;;;;;;;5115909;28;20301;-65
2022/11/19 08:28:59;;;;;;;14.13;9.63;;;;;;;;;;5115384;28;20665;-65
2022/11/19 08:31:27;;;;;;;12.88;9.20;;;;;;;;;;5115424;28;20192;-65
2022/11/19 08:33:54;;;;;;;12.65;9.57;;;;;;;;;;5115648;28;20676;-65
2022/11/19 08:36:22;;;;;;;15.00;11.32;;;;;;;;;;5115454;28;20211;-65
2022/11/19 08:38:49;;;;;;;13.98;9.57;;;;;;;;;;5115741;28;20202;-66
2022/11/19 08:44:02;;;;;;;11.80;10.20;;;;;;;;;;5115299;28;20566;-65
2022/11/19 08:46:29;;;;;;;13.80;10.18;;;;;;;;;;5115926;28;20583;-65
2022/11/19 08:48:57;;;;;;;15.30;10.00;;;;;;;;;;5115146;28;20203;-65
2022/11/19 08:51:24;;;;;;;13.32;9.73;;;;;;;;;;5115377;28;20508;-65
2022/11/19 08:53:52;;;;;;;16.73;10.05;;;;;;;;;;5115061;28;20197;-65
2022/11/19 08:56:21;;;;;;;9.07;5.90;;;;;;;;;;5114792;28;20280;-65
2022/11/19 08:58:49;;;;;;;12.82;8.77;;;;;;;;;;5115178;28;20561;-65
2022/11/19 09:01:17;;;;;;;12.68;8.25;;;;;;;;;;5115190;28;20512;-64
2022/11/19 09:03:45;;;;;;;13.90;9.65;;;;;;;;;;5114352;28;20669;-64
2022/11/19 09:06:12;;;;;;;13.13;9.07;;;;;;;;;;5114872;28;20288;-65
2022/11/19 09:08:39;;;;;;;12.90;8.90;;;;;;;;;;5115005;28;20196;-66
2022/11/19 09:11:07;;;;;;;13.43;8.60;;;;;;;;;;5113996;28;20721;-66
2022/11/19 09:13:36;;;;;;;13.02;9.68;;;;;;;;;;5114313;28;20223;-68
2022/11/19 09:16:03;;;;;;;9.98;8.85;;;;;;;;;;5114502;28;20194;-65
2022/11/19 09:18:31;;;;;;;16.00;10.77;;;;;;;;;;5114250;28;20190;-66
2022/11/19 09:20:58;;;;;;;11.73;9.30;;;;;;;;;;5113866;28;20292;-65
2022/11/19 09:23:31;;;;;;;12.30;9.95;;;;;;;;;;5114267;28;20289;-65
2022/11/19 09:25:59;;;;;;;14.60;9.63;;;;;;;;;;5114437;28;20185;-66
2022/11/19 09:28:27;;;;;;;10.85;8.07;;;;;;;;;;5114273;28;20200;-65
2022/11/19 09:30:59;;;;;;;12.30;9.50;;;;;;;;;;5114217;28;20235;-65
2022/11/19 09:33:27;;;;;;;11.35;9.15;;;;;;;;;;5114167;28;20232;-65
2022/11/19 09:35:54;;;;;;;12.07;9.07;;;;;;;;;;5114192;28;20250;-65
2022/11/19 09:38:21;;;;;;;15.32;9.90;;;;;;;;;;5114324;28;20194;-65
2022/11/19 09:40:50;;;;;;;11.80;8.60;;;;;;;;;;5114332;28;20204;-65
2022/11/19 09:43:20;;;;;;;10.45;7.88;;;;;;;;;;5114276;28;20225;-65
2022/11/19 09:45:54;;;;;;;13.30;9.63;;;;;;;;;;5114306;28;20200;-65
2022/11/19 09:48:29;;;;;;;11.85;9.30;;;;;;;;;;5114333;28;20185;-65
2022/11/19 09:50:59;;;;;;;10.43;8.45;;;;;;;;;;5114232;28;20557;-65
2022/11/19 09:53:29;;;;;;;9.68;8.60;;;;;;;;;;5114033;28;20204;-65
2022/11/19 09:55:58;;;;;;;12.77;8.88;;;;;;;;;;5114504;28;20189;-65
2022/11/19 09:58:26;;;;;;;10.38;8.48;;;;;;;;;;5113738;28;20712;-65
2022/11/19 10:00:54;;;;;;;10.30;8.48;;;;;;;;;;5114251;28;20212;-65
2022/11/19 10:03:23;;;;;;;9.57;8.32;;;;;;;;;;5113612;28;20193;-66
2022/11/19 10:06:01;;;;;;;12.35;8.50;;;;;;;;;;5114028;28;20207;-65
2022/11/19 10:08:36;;;;;;;9.98;8.68;;;;;;;;;;5114056;28;20182;-65
2022/11/19 10:11:08;;;;;;;14.85;8.88;;;;;;;;;;5114491;28;20223;-65
2022/11/19 10:13:42;;;;;;;12.88;8.18;;;;;;;;;;5113499;28;20191;-65
2022/11/19 10:16:17;;;;;;;9.15;7.60;;;;;;;;;;5114662;28;20194;-65
2022/11/19 10:18:50;;;;;;;12.85;8.65;;;;;;;;;;5114141;28;20184;-66
2022/11/19 10:21:23;;;;;;;11.27;7.68;;;;;;;;;;5114428;28;20190;-66
2022/11/19 10:23:53;;;;;;;8.85;7.15;;;;;;;;;;5113800;28;20205;-65
2022/11/19 10:26:26;;;;;;;11.77;7.70;;;;;;;;;;5113631;28;20190;-66
2022/11/19 10:28:55;;;;;;;13.93;8.82;;;;;;;;;;5113382;28;20217;-66
2022/11/19 10:31:26;;;;;;;10.93;7.90;;;;;;;;;;5113585;28;20221;-65
2022/11/19 10:33:57;;;;;;;11.45;7.90;;;;;;;;;;5114054;28;20546;-66
2022/11/19 10:36:27;;;;;;;9.98;7.55;;;;;;;;;;5113739;28;20201;-65
2022/11/19 10:38:57;;;;;;;9.55;7.80;;;;;;;;;;5114027;28;20195;-66
2022/11/19 10:41:34;;;;;;;14.65;8.50;;;;;;;;;;5113575;28;20188;-65
2022/11/19 10:44:06;;;;;;;12.02;8.07;;;;;;;;;;5113530;28;20273;-66
2022/11/19 10:46:34;;;;;;;12.63;7.53;;;;;;;;;;5114092;28;20285;-65
2022/11/19 10:49:02;;;;;;;9.88;7.30;;;;;;;;;;5113354;28;20195;-66
2022/11/19 10:51:31;;;;;;;10.35;7.28;;;;;;;;;;5113455;28;20548;-66
2022/11/19 10:53:58;;;;;;;10.32;8.10;;;;;;;;;;5113105;28;20201;-66
2022/11/19 10:56:31;;;;;;;7.88;6.55;;;;;;;;;;5114008;28;20562;-65
2022/11/19 10:59:02;;;;;;;9.60;6.90;;;;;;;;;;5113862;28;20206;-65
2022/11/19 11:01:30;;;;;;;11.27;8.15;;;;;;;;;;5113336;28;20185;-66
2022/11/19 11:04:01;;;;;;;8.38;6.85;;;;;;;;;;5113343;28;20195;-66
2022/11/19 11:06:48;;;;;;;8.77;7.88;;;;;;;;;;5117194;28;20267;-66
2022/11/19 11:09:29;;;;;;;7.57;6.78;;;;;;;;;;5117593;28;20273;-65
2022/11/19 11:14:54;;;;;;;8.40;6.50;;;;;;;;;;5090986;28;20194;-65
2022/11/19 11:17:23;;;;;;;6.97;6.25;;;;;;;;;;5116351;28;20214;-66
2022/11/19 11:19:57;;;;;;;7.45;6.65;;;;;;;;;;5116685;28;20198;-66
2022/11/19 11:22:25;;;;;;;7.95;6.50;;;;;;;;;;5116718;28;20503;-66
2022/11/19 11:24:54;;;;;;;8.65;6.40;;;;;;;;;;5116939;28;20268;-66
2022/11/19 11:27:22;;;;;;;9.38;6.45;;;;;;;;;;5116995;27;20195;-66
2022/11/19 11:29:49;;;;;;;7.95;6.22;;;;;;;;;;5116826;28;20195;-66
2022/11/19 11:32:29;;;;;;;6.40;5.75;;;;;;;;;;5116757;28;20203;-65
2022/11/19 11:34:56;;;;;;;8.07;7.22;;;;;;;;;;5117125;28;20550;-66
2022/11/19 11:37:24;;;;;;;7.45;6.32;;;;;;;;;;5116757;28;20191;-65
2022/11/19 11:39:54;;;;;;;8.35;6.10;;;;;;;;;;5116289;28;20199;-66
2022/11/19 11:42:25;;;;;;;7.95;6.10;;;;;;;;;;5116057;28;20232;-66
2022/11/19 11:44:53;;;;;;;6.70;6.00;;;;;;;;;;5116566;28;20363;-66
2022/11/19 11:47:21;;;;;;;7.18;6.45;;;;;;;;;;5116364;28;20286;-66
2022/11/19 11:49:50;;;;;;;7.90;5.78;;;;;;;;;;5116143;28;20545;-66
2022/11/19 11:52:19;;;;;;;7.20;5.00;;;;;;;;;;5116128;28;20192;-66
2022/11/19 11:54:57;;;;;;;7.07;6.20;;;;;;;;;;5115712;28;20218;-66
2022/11/19 11:57:27;;;;;;;5.57;5.03;;;;;;;;;;5116274;28;20193;-66
2022/11/19 11:59:54;;;;;;;6.38;5.63;;;;;;;;;;5116730;28;20194;-66
2022/11/19 12:02:25;;;;;;;7.57;5.35;;;;;;;;;;5115944;28;20198;-66
2022/11/19 12:04:53;;;;;;;8.38;6.15;;;;;;;;;;5116040;28;20612;-66
2022/11/19 12:07:26;;;;;;;5.43;4.93;;;;;;;;;;5116405;28;20199;-66
2022/11/19 12:10:02;;;;;;;6.05;5.15;;;;;;;;;;5116150;28;20197;-65
2022/11/19 12:12:34;;;;;;;6.90;4.95;;;;;;;;;;5116380;28;20198;-66
2022/11/19 12:15:04;;;;;;;7.53;5.70;;;;;;;;;;5115703;28;20180;-66
2022/11/19 12:17:37;;;;;;;10.98;6.47;;;;;;;;;;5116031;28;20190;-65
2022/11/19 12:20:11;;;;;;;6.55;5.95;;;;;;;;;;5115997;28;20191;-66
2022/11/19 12:22:45;;;;;;;7.80;6.45;;;;;;;;;;5115879;28;20188;-65
2022/11/19 12:25:20;;;;;;;7.15;6.18;;;;;;;;;;5116142;28;20206;-66
2022/11/19 12:27:52;;;;;;;5.78;5.18;;;;;;;;;;5115953;28;20210;-65
2022/11/19 12:30:20;;;;;;;5.85;5.25;;;;;;;;;;5115397;28;20716;-66
2022/11/19 12:33:00;;;;;;;6.18;4.90;;;;;;;;;;5115542;28;20199;-66
2022/11/19 12:35:38;;;;;;;6.47;5.80;;;;;;;;;;5115411;28;20637;-66
2022/11/19 12:38:29;;;;;;;5.70;4.80;;;;;;;;;;5115820;28;20184;-66
2022/11/19 12:41:05;;;;;;;6.38;4.95;;;;;;;;;;5095542;28;20202;-66
2022/11/19 12:43:42;;;;;;;7.45;5.72;;;;;;;;;;5115758;28;20232;-66
2022/11/19 12:46:12;;;;;;;6.78;4.97;;;;;;;;;;5114953;28;20191;-68
2022/11/19 12:48:48;;;;;;;11.50;7.15;;;;;;;;;;5115372;28;20270;-67
2022/11/19 12:51:19;;;;;;;5.50;4.68;;;;;;;;;;5115278;28;20653;-66
2022/11/19 12:53:55;;;;;;;6.10;5.30;;;;;;;;;;5115296;28;20184;-66
2022/11/19 12:56:30;;;;;;;5.50;4.82;;;;;;;;;;5115264;28;20283;-66
2022/11/19 12:59:04;;;;;;;5.32;4.82;;;;;;;;;;5115642;28;20278;-66
2022/11/19 13:01:34;;;;;;;7.13;5.32;;;;;;;;;;5115574;28;20190;-66
2022/11/19 13:04:04;;;;;;;5.15;4.65;;;;;;;;;;5115170;28;20187;-65
2022/11/19 13:06:33;;;;;;;6.03;4.93;;;;;;;;;;5114972;28;20284;-66
2022/11/19 13:09:02;;;;;;;5.25;4.75;;;;;;;;;;5114958;28;20666;-66
2022/11/19 13:11:35;;;;;;;6.50;4.38;;;;;;;;;;5114579;28;20713;-66
2022/11/19 13:14:06;;;;;;;5.70;5.07;;;;;;;;;;5115546;28;20558;-66
2022/11/19 13:16:35;;;;;;;4.22;3.85;;;;;;;;;;5114446;28;20194;-66
2022/11/19 13:19:07;;;;;;;8.07;4.70;;;;;;;;;;5114874;28;20571;-66
2022/11/19 13:21:39;;;;;;;5.95;5.35;;;;;;;;;;5114998;28;20190;-67
2022/11/19 13:24:14;;;;;;;5.85;4.95;;;;;;;;;;5114354;28;20184;-67
2022/11/19 13:26:41;;;;;;;5.32;4.85;;;;;;;;;;5114314;28;20650;-66
2022/11/19 13:29:25;;;;;;;7.53;5.32;;;;;;;;;;5113706;28;20681;-66
2022/11/19 13:31:55;;;;;;;7.88;5.35;;;;;;;;;;5114696;28;20210;-67
2022/11/19 13:34:25;;;;;;;5.32;4.80;;;;;;;;;;5114843;28;20641;-66
2022/11/19 13:36:59;;;;;;;8.15;6.55;;;;;;;;;;5114164;28;20234;-66
2022/11/19 13:39:29;;;;;;;10.43;6.63;;;;;;;;;;5114274;28;20187;-67
2022/11/19 13:44:43;;;;;;;6.85;6.13;;;;;;;;;;5114177;28;20187;-65
2022/11/19 13:47:13;;;;;;;7.55;6.13;;;;;;;;;;5114045;28;20708;-66
2022/11/19 13:49:43;;;;;;;6.22;5.63;;;;;;;;;;5114390;28;20601;-65
2022/11/19 13:52:15;;;;;;;5.65;4.95;;;;;;;;;;5114593;28;20578;-66
2022/11/19 13:54:44;;;;;;;7.25;6.20;;;;;;;;;;5114700;28;20195;-66
2022/11/19 13:57:25;;;;;;;7.00;6.28;;;;;;;;;;5113753;28;20231;-66
2022/11/19 13:59:57;;;;;;;8.35;5.53;;;;;;;;;;5114708;28;20186;-66
2022/11/19 14:02:54;;;;;;;7.35;6.03;;;;;;;;;;5114319;28;20191;-66
2022/11/19 14:05:34;;;;;;;7.10;5.60;;;;;;;;;;5114111;28;20192;-66
2022/11/19 14:08:10;;;;;;;6.35;5.22;;;;;;;;;;5113648;28;20219;-66
2022/11/19 14:10:39;;;;;;;9.75;6.13;;;;;;;;;;5113550;28;20186;-66
2022/11/19 14:13:19;;;;;;;8.70;6.60;;;;;;;;;;5113661;28;20331;-66
2022/11/19 14:27:33;;;;;;;10.20;7.63;;;;;;;;;;5113592;28;20181;-66
2022/11/19 14:30:01;;;;;;;8.07;6.45;;;;;;;;;;5113801;28;20553;-66
2022/11/19 14:32:34;;;;;;;8.10;6.40;;;;;;;;;;5113077;28;20306;-65
2022/11/19 14:35:12;;;;;;;6.57;5.88;;;;;;;;;;5113806;28;20529;-66
2022/11/19 14:37:40;;;;;;;8.90;7.18;;;;;;;;;;5113657;28;20640;-66
2022/11/19 14:40:09;;;;;;;8.45;6.60;;;;;;;;;;5114940;28;20299;-65
2022/11/19 14:44:06;;;;;;;7.53;5.93;;;;;;;;;;5118008;28;20224;-67
2022/11/19 14:45:23;;;;;;;8.25;6.35;;;;;;;;;;5117480;28;20201;-66
2022/11/19 14:48:03;;;;;;;8.85;7.00;;;;;;;;;;5118316;28;20207;-65
2022/11/19 14:50:31;;;;;;;10.20;6.85;;;;;;;;;;5117300;28;20654;-66
2022/11/19 14:52:59;;;;;;;8.15;6.35;;;;;;;;;;5115968;28;20201;-66
2022/11/19 14:55:27;;;;;;;8.90;6.47;;;;;;;;;;5117346;28;20198;-67
2022/11/19 14:57:56;;;;;;;7.78;6.70;;;;;;;;;;5117352;28;20194;-65
2022/11/19 15:00:33;;;;;;;7.40;5.90;;;;;;;;;;5117341;28;20199;-66
2022/11/19 15:03:02;;;;;;;7.65;5.78;;;;;;;;;;5117395;28;20186;-66
2022/11/19 15:05:32;;;;;;;7.03;5.55;;;;;;;;;;5117153;28;20272;-66
2022/11/19 15:08:14;;;;;;;6.80;6.07;;;;;;;;;;5117144;28;20206;-66
2022/11/19 15:10:48;;;;;;;6.07;4.95;;;;;;;;;;5116757;28;20203;-66
2022/11/19 15:13:20;;;;;;;6.10;5.50;;;;;;;;;;5117080;28;20191;-66
2022/11/19 15:15:49;;;;;;;6.28;5.47;;;;;;;;;;5116682;28;20199;-66
2022/11/19 15:18:31;;;;;;;9.00;5.82;;;;;;;;;;5116920;28;20645;-66
2022/11/19 15:21:11;;;;;;;6.70;6.10;;;;;;;;;;5104276;28;20208;-66
2022/11/19 15:23:41;;;;;;;7.50;6.40;;;;;;;;;;5096461;28;20559;-66
2022/11/19 15:26:13;;;;;;;8.32;6.93;;;;;;;;;;5096956;28;20221;-66